Time;durP1;ratioP1;P1;durP2;ratioP2;P2;SDS_P1;SDS_P2;PMS_P1;PMS_P2;Temp;Humidity;BMP_temperature;BMP_pressure;BME280_temperature;BME280_humidity;BME280_pressure;Samples;Min_cycle;Max_cycle;Signal;HPM_P1;HPM_P2
2023/04/20 00:00:49;;;;;;;14.63;12.80;;;;;;;;;;5094299;28;20520;-60
2023/04/20 00:03:20;;;;;;;17.93;13.67;;;;;;;;;;5094207;28;20451;-61
2023/04/20 00:05:48;;;;;;;18.98;13.20;;;;;;;;;;5094389;28;20436;-60
2023/04/20 00:08:16;;;;;;;14.07;12.67;;;;;;;;;;5094202;28;20197;-60
2023/04/20 00:10:43;;;;;;;16.40;13.23;;;;;;;;;;5094059;28;20938;-60
2023/04/20 00:13:12;;;;;;;15.60;12.57;;;;;;;;;;5093946;28;20562;-60
2023/04/20 00:15:39;;;;;;;14.37;12.87;;;;;;;;;;5094040;28;20485;-60
2023/04/20 00:18:06;;;;;;;15.10;12.70;;;;;;;;;;5093911;28;20453;-60
2023/04/20 00:20:34;;;;;;;15.83;13.10;;;;;;;;;;5094113;28;20541;-60
2023/04/20 00:23:00;;;;;;;14.90;12.27;;;;;;;;;;5093978;28;20451;-60
2023/04/20 00:25:29;;;;;;;13.50;12.20;;;;;;;;;;5093859;28;20780;-60
2023/04/20 00:27:56;;;;;;;17.23;12.63;;;;;;;;;;5093848;28;20466;-60
2023/04/20 00:30:24;;;;;;;15.17;13.10;;;;;;;;;;5093757;28;20443;-60
2023/04/20 00:32:51;;;;;;;13.00;11.60;;;;;;;;;;5093642;28;20440;-60
2023/04/20 00:35:18;;;;;;;14.27;12.40;;;;;;;;;;5093780;28;20575;-60
2023/04/20 00:37:45;;;;;;;15.90;13.13;;;;;;;;;;5093760;28;20447;-60
2023/04/20 00:40:12;;;;;;;14.50;12.33;;;;;;;;;;5093636;28;20538;-60
2023/04/20 00:42:40;;;;;;;14.13;11.73;;;;;;;;;;5093559;28;20453;-60
2023/04/20 00:45:07;;;;;;;12.80;10.63;;;;;;;;;;5093404;28;20459;-60
2023/04/20 00:47:36;;;;;;;13.83;11.57;;;;;;;;;;5093656;28;20538;-60
2023/04/20 00:50:03;;;;;;;12.60;10.50;;;;;;;;;;5093472;28;20496;-61
2023/04/20 00:52:30;;;;;;;13.37;11.47;;;;;;;;;;5093494;28;20576;-60
2023/04/20 00:54:57;;;;;;;13.17;11.80;;;;;;;;;;5093119;28;20577;-60
2023/04/20 00:57:24;;;;;;;13.67;11.83;;;;;;;;;;5093278;28;20534;-60
2023/04/20 00:59:51;;;;;;;13.63;12.23;;;;;;;;;;5093176;28;20546;-60
2023/04/20 01:02:18;;;;;;;14.73;12.77;;;;;;;;;;5093188;28;20443;-61
2023/04/20 01:04:47;;;;;;;14.13;12.23;;;;;;;;;;5093183;28;21022;-60
2023/04/20 01:07:14;;;;;;;15.67;12.53;;;;;;;;;;5093215;28;20538;-60
2023/04/20 01:09:41;;;;;;;12.45;11.25;;;;;;;;;;5093234;28;20443;-60
2023/04/20 01:12:10;;;;;;;12.50;11.27;;;;;;;;;;5092995;28;20250;-60
2023/04/20 01:14:37;;;;;;;13.82;11.60;;;;;;;;;;5093203;28;20486;-60
2023/04/20 01:17:04;;;;;;;13.67;12.27;;;;;;;;;;5093225;28;20287;-60
2023/04/20 01:19:31;;;;;;;12.93;9.97;;;;;;;;;;5092572;28;20447;-60
2023/04/20 01:22:00;;;;;;;12.23;10.90;;;;;;;;;;5093138;28;20950;-60
2023/04/20 01:24:28;;;;;;;11.13;9.73;;;;;;;;;;5092954;28;20188;-60
2023/04/20 01:26:56;;;;;;;11.67;10.43;;;;;;;;;;5092867;28;20454;-60
2023/04/20 01:29:23;;;;;;;12.47;10.53;;;;;;;;;;5093078;28;20533;-61
2023/04/20 01:31:50;;;;;;;11.87;10.67;;;;;;;;;;5093019;28;20447;-60
2023/04/20 01:34:17;;;;;;;12.93;11.55;;;;;;;;;;5092952;28;20485;-60
2023/04/20 01:36:44;;;;;;;12.37;10.73;;;;;;;;;;5092905;28;20191;-61
2023/04/20 01:39:11;;;;;;;14.32;11.50;;;;;;;;;;5092806;28;20551;-60
2023/04/20 01:41:40;;;;;;;13.73;12.30;;;;;;;;;;5093012;28;20280;-60
2023/04/20 01:44:07;;;;;;;12.83;10.90;;;;;;;;;;5093166;28;20479;-60
2023/04/20 01:46:33;;;;;;;15.68;12.93;;;;;;;;;;5092930;28;20446;-61
2023/04/20 01:49:00;;;;;;;14.32;11.65;;;;;;;;;;5092832;28;20200;-60
2023/04/20 01:51:28;;;;;;;14.40;12.87;;;;;;;;;;5092775;28;20278;-61
2023/04/20 01:53:55;;;;;;;14.03;12.30;;;;;;;;;;5092417;28;20487;-60
2023/04/20 01:56:22;;;;;;;18.67;13.10;;;;;;;;;;5092924;28;20873;-60
2023/04/20 01:58:50;;;;;;;14.68;13.07;;;;;;;;;;5092795;28;20447;-60
2023/04/20 02:01:17;;;;;;;16.33;13.60;;;;;;;;;;5092716;28;20197;-60
2023/04/20 02:03:44;;;;;;;18.87;12.70;;;;;;;;;;5092664;28;20541;-60
2023/04/20 02:06:11;;;;;;;15.43;13.33;;;;;;;;;;5092534;28;20448;-60
2023/04/20 02:08:38;;;;;;;14.90;12.50;;;;;;;;;;5092492;28;20446;-60
2023/04/20 02:11:05;;;;;;;14.40;12.30;;;;;;;;;;5092663;28;20810;-61
2023/04/20 02:13:32;;;;;;;15.60;12.50;;;;;;;;;;5092565;28;20446;-60
2023/04/20 02:16:00;;;;;;;13.80;12.07;;;;;;;;;;5092575;28;20473;-60
2023/04/20 02:18:28;;;;;;;13.20;11.90;;;;;;;;;;5092534;28;20542;-60
2023/04/20 02:20:56;;;;;;;14.90;12.47;;;;;;;;;;5092434;28;20447;-60
2023/04/20 02:23:23;;;;;;;14.23;12.17;;;;;;;;;;5092596;28;20542;-58
2023/04/20 02:25:50;;;;;;;16.13;13.00;;;;;;;;;;5092568;28;20455;-60
2023/04/20 02:28:17;;;;;;;19.43;12.67;;;;;;;;;;5092794;28;20467;-60
2023/04/20 02:30:44;;;;;;;13.98;12.57;;;;;;;;;;5092490;28;20475;-60
2023/04/20 02:33:12;;;;;;;13.60;11.50;;;;;;;;;;5095977;28;20192;-60
2023/04/20 02:35:39;;;;;;;15.00;12.60;;;;;;;;;;5095794;28;20479;-60
2023/04/20 02:38:06;;;;;;;14.50;12.50;;;;;;;;;;5096105;28;20801;-60
2023/04/20 02:40:33;;;;;;;15.37;12.57;;;;;;;;;;5095947;28;20806;-60
2023/04/20 02:43:00;;;;;;;17.47;13.87;;;;;;;;;;5095882;28;20809;-60
2023/04/20 02:45:27;;;;;;;14.23;12.70;;;;;;;;;;5095766;28;20447;-60
2023/04/20 02:47:54;;;;;;;17.03;13.13;;;;;;;;;;5095820;28;20486;-60
2023/04/20 02:50:22;;;;;;;15.40;12.67;;;;;;;;;;5095567;28;20825;-60
2023/04/20 02:52:49;;;;;;;18.30;15.17;;;;;;;;;;5095580;28;20447;-60
2023/04/20 02:55:16;;;;;;;18.53;13.13;;;;;;;;;;5095628;28;20510;-60
2023/04/20 02:57:43;;;;;;;19.90;15.07;;;;;;;;;;5095625;28;20457;-60
2023/04/20 03:00:12;;;;;;;17.07;14.50;;;;;;;;;;5095489;28;20451;-60
2023/04/20 03:02:39;;;;;;;16.63;13.47;;;;;;;;;;5095409;28;20554;-60
2023/04/20 03:05:06;;;;;;;15.93;13.40;;;;;;;;;;5095583;28;20554;-59
2023/04/20 03:07:35;;;;;;;16.33;13.10;;;;;;;;;;5095536;28;20447;-60
2023/04/20 03:10:01;;;;;;;15.10;13.50;;;;;;;;;;5095275;28;20834;-60
2023/04/20 03:12:30;;;;;;;19.23;14.33;;;;;;;;;;5095237;28;20438;-60
2023/04/20 03:14:57;;;;;;;15.27;13.67;;;;;;;;;;5095043;28;20479;-60
2023/04/20 03:17:24;;;;;;;13.77;12.07;;;;;;;;;;5095048;28;20810;-60
2023/04/20 03:19:51;;;;;;;16.87;13.60;;;;;;;;;;5095175;28;20496;-60
2023/04/20 03:22:18;;;;;;;16.90;13.50;;;;;;;;;;5095157;28;20454;-60
2023/04/20 03:24:47;;;;;;;15.83;14.13;;;;;;;;;;5094936;28;20933;-60
2023/04/20 03:27:14;;;;;;;17.03;13.50;;;;;;;;;;5094943;28;20969;-60
2023/04/20 03:29:41;;;;;;;16.13;13.70;;;;;;;;;;5094760;28;20443;-60
2023/04/20 03:32:08;;;;;;;15.60;13.20;;;;;;;;;;5094782;28;20970;-60
2023/04/20 03:34:35;;;;;;;16.10;13.53;;;;;;;;;;5094896;28;20470;-60
2023/04/20 03:37:02;;;;;;;16.50;13.40;;;;;;;;;;5094826;28;20542;-60
2023/04/20 03:39:29;;;;;;;18.53;14.13;;;;;;;;;;5094638;28;20451;-60
2023/04/20 03:41:58;;;;;;;15.60;14.00;;;;;;;;;;5094266;28;20447;-60
2023/04/20 03:44:25;;;;;;;18.37;14.73;;;;;;;;;;5095047;28;20799;-60
2023/04/20 03:46:51;;;;;;;16.40;13.67;;;;;;;;;;5094535;28;20490;-60
2023/04/20 03:49:22;;;;;;;16.17;13.40;;;;;;;;;;5094674;28;20784;-61
2023/04/20 03:51:49;;;;;;;18.27;13.67;;;;;;;;;;5094523;28;20451;-60
2023/04/20 03:54:15;;;;;;;16.67;14.37;;;;;;;;;;5094559;28;20799;-62
2023/04/20 03:56:43;;;;;;;14.27;12.70;;;;;;;;;;5094331;28;20802;-59
2023/04/20 03:59:11;;;;;;;19.27;14.57;;;;;;;;;;5094244;28;20447;-59
2023/04/20 04:01:38;;;;;;;16.17;13.10;;;;;;;;;;5094404;28;20870;-59
2023/04/20 04:04:05;;;;;;;23.57;15.00;;;;;;;;;;5094365;28;20479;-59
2023/04/20 04:06:32;;;;;;;16.00;14.30;;;;;;;;;;5094194;28;20454;-59
2023/04/20 04:08:59;;;;;;;16.10;13.10;;;;;;;;;;5094126;28;20453;-60
2023/04/20 04:11:28;;;;;;;18.70;14.43;;;;;;;;;;5094011;28;20538;-59
2023/04/20 04:13:55;;;;;;;22.00;15.67;;;;;;;;;;5094188;28;20826;-59
2023/04/20 04:16:24;;;;;;;20.57;16.13;;;;;;;;;;5094078;28;20485;-59
2023/04/20 04:18:51;;;;;;;23.70;16.13;;;;;;;;;;5094061;28;20784;-60
2023/04/20 04:21:18;;;;;;;26.77;17.53;;;;;;;;;;5093620;28;20670;-59
2023/04/20 04:23:45;;;;;;;23.85;17.80;;;;;;;;;;5093511;28;20538;-60
2023/04/20 04:26:12;;;;;;;22.23;16.93;;;;;;;;;;5093240;28;20563;-60
2023/04/20 04:28:39;;;;;;;20.53;15.43;;;;;;;;;;5093409;28;20455;-60
2023/04/20 04:31:06;;;;;;;18.63;16.37;;;;;;;;;;5093594;28;20462;-59
2023/04/20 04:33:34;;;;;;;20.93;17.40;;;;;;;;;;5093401;28;20828;-59
2023/04/20 04:36:02;;;;;;;26.00;17.70;;;;;;;;;;5093203;28;20490;-59
2023/04/20 04:38:28;;;;;;;24.57;17.97;;;;;;;;;;5093044;28;20591;-60
2023/04/20 04:40:56;;;;;;;22.50;17.93;;;;;;;;;;5093375;28;20538;-60
2023/04/20 04:43:24;;;;;;;31.30;21.20;;;;;;;;;;5093235;28;20447;-59
2023/04/20 04:45:52;;;;;;;26.37;18.77;;;;;;;;;;5093019;28;20443;-60
2023/04/20 04:48:19;;;;;;;25.45;19.95;;;;;;;;;;5093012;28;20525;-60
2023/04/20 04:50:47;;;;;;;22.50;18.57;;;;;;;;;;5093005;28;20221;-59
2023/04/20 04:53:14;;;;;;;28.30;19.30;;;;;;;;;;5092450;28;20489;-60
2023/04/20 04:55:41;;;;;;;28.77;19.17;;;;;;;;;;5092800;28;20481;-60
2023/04/20 04:58:08;;;;;;;28.13;21.23;;;;;;;;;;5092870;28;20447;-59
2023/04/20 05:00:35;;;;;;;28.73;19.97;;;;;;;;;;5092831;28;20545;-59
2023/04/20 05:03:02;;;;;;;24.70;19.20;;;;;;;;;;5092782;28;20454;-59
2023/04/20 05:05:29;;;;;;;32.07;20.87;;;;;;;;;;5092695;28;20534;-59
2023/04/20 05:07:58;;;;;;;29.00;20.77;;;;;;;;;;5092825;28;20530;-59
2023/04/20 05:10:25;;;;;;;27.90;22.17;;;;;;;;;;5092587;28;21029;-59
2023/04/20 05:12:52;;;;;;;29.50;21.10;;;;;;;;;;5092696;28;20453;-59
2023/04/20 05:15:19;;;;;;;25.27;18.43;;;;;;;;;;5092514;28;20471;-59
2023/04/20 05:17:48;;;;;;;28.00;21.37;;;;;;;;;;5092594;28;20443;-59
2023/04/20 05:20:15;;;;;;;27.60;20.03;;;;;;;;;;5092499;28;20938;-59
2023/04/20 05:22:42;;;;;;;27.53;21.33;;;;;;;;;;5092672;28;20455;-59
2023/04/20 05:25:11;;;;;;;26.83;20.50;;;;;;;;;;5092840;28;20490;-59
2023/04/20 05:27:38;;;;;;;28.83;21.30;;;;;;;;;;5092577;28;20451;-59
2023/04/20 05:30:06;;;;;;;33.10;21.47;;;;;;;;;;5092414;28;20554;-59
2023/04/20 05:32:32;;;;;;;28.23;19.60;;;;;;;;;;5092483;28;20494;-59
2023/04/20 05:35:00;;;;;;;24.77;19.97;;;;;;;;;;5092295;28;20471;-63
2023/04/20 05:37:27;;;;;;;26.53;20.80;;;;;;;;;;5092273;28;20938;-60
2023/04/20 05:39:54;;;;;;;27.23;21.10;;;;;;;;;;5092552;28;20462;-59
2023/04/20 05:42:22;;;;;;;25.60;20.20;;;;;;;;;;5092341;28;20486;-60
2023/04/20 05:44:49;;;;;;;27.13;20.50;;;;;;;;;;5092317;28;20532;-59
2023/04/20 05:47:16;;;;;;;26.30;19.57;;;;;;;;;;5092157;28;20544;-59
2023/04/20 05:49:44;;;;;;;27.45;21.02;;;;;;;;;;5092152;28;20459;-59
2023/04/20 05:52:11;;;;;;;25.40;19.93;;;;;;;;;;5092347;28;20193;-59
2023/04/20 05:54:38;;;;;;;29.23;20.87;;;;;;;;;;5092257;28;20475;-60
2023/04/20 05:57:05;;;;;;;26.53;20.93;;;;;;;;;;5092238;28;20451;-59
2023/04/20 05:59:34;;;;;;;25.43;20.27;;;;;;;;;;5092239;28;20443;-59
2023/04/20 06:02:01;;;;;;;28.52;20.80;;;;;;;;;;5091992;28;20461;-59
2023/04/20 06:04:29;;;;;;;25.37;18.57;;;;;;;;;;5092198;28;20624;-60
2023/04/20 06:06:56;;;;;;;26.20;20.60;;;;;;;;;;5095892;28;20455;-60
2023/04/20 06:09:23;;;;;;;29.60;19.90;;;;;;;;;;5095989;28;20472;-60
2023/04/20 06:11:50;;;;;;;27.00;20.37;;;;;;;;;;5095946;28;20457;-60
2023/04/20 06:14:17;;;;;;;32.13;19.67;;;;;;;;;;5095800;28;20533;-60
2023/04/20 06:16:45;;;;;;;24.73;19.90;;;;;;;;;;5096109;28;20478;-60
2023/04/20 06:19:12;;;;;;;31.53;19.97;;;;;;;;;;5096125;28;20447;-60
2023/04/20 06:21:39;;;;;;;26.20;20.60;;;;;;;;;;5095977;28;20451;-60
2023/04/20 06:24:06;;;;;;;27.93;21.00;;;;;;;;;;5095956;28;20549;-60
2023/04/20 06:26:33;;;;;;;31.40;21.70;;;;;;;;;;5095731;28;20458;-60
2023/04/20 06:29:00;;;;;;;31.30;22.90;;;;;;;;;;5095592;28;20508;-60
2023/04/20 06:31:27;;;;;;;27.60;20.83;;;;;;;;;;5095732;28;20893;-60
2023/04/20 06:33:55;;;;;;;27.90;20.13;;;;;;;;;;5095635;28;20515;-60
2023/04/20 06:36:22;;;;;;;25.60;18.57;;;;;;;;;;5095486;28;20726;-60
2023/04/20 06:38:50;;;;;;;27.87;21.40;;;;;;;;;;5095262;28;20822;-60
2023/04/20 06:41:17;;;;;;;32.83;20.70;;;;;;;;;;5095239;28;20500;-60
2023/04/20 06:43:45;;;;;;;27.97;20.23;;;;;;;;;;5095560;28;20486;-60
2023/04/20 06:46:12;;;;;;;26.27;19.73;;;;;;;;;;5095433;28;20470;-60
2023/04/20 06:48:38;;;;;;;31.80;22.00;;;;;;;;;;5095136;28;21017;-60
2023/04/20 06:51:07;;;;;;;27.60;20.73;;;;;;;;;;5095295;28;20538;-60
2023/04/20 06:53:34;;;;;;;28.57;19.93;;;;;;;;;;5094863;28;20475;-60
2023/04/20 06:56:01;;;;;;;27.07;19.77;;;;;;;;;;5094853;28;20569;-60
2023/04/20 06:58:28;;;;;;;27.83;20.83;;;;;;;;;;5095261;28;20555;-60
2023/04/20 07:00:55;;;;;;;28.23;18.87;;;;;;;;;;5095148;28;20879;-60
2023/04/20 07:03:22;;;;;;;21.03;17.67;;;;;;;;;;5094834;28;20534;-60
2023/04/20 07:05:49;;;;;;;23.70;17.70;;;;;;;;;;5094909;28;20736;-60
2023/04/20 07:08:18;;;;;;;22.73;17.70;;;;;;;;;;5094845;28;20453;-60
2023/04/20 07:10:45;;;;;;;21.27;16.00;;;;;;;;;;5094753;28;20451;-59
2023/04/20 07:13:11;;;;;;;22.40;17.07;;;;;;;;;;5094728;28;21006;-60
2023/04/20 07:15:38;;;;;;;21.47;15.77;;;;;;;;;;5094826;28;20475;-60
2023/04/20 07:18:05;;;;;;;21.00;16.27;;;;;;;;;;5093867;28;20453;-60
2023/04/20 07:20:32;;;;;;;25.40;16.77;;;;;;;;;;5094587;28;20642;-60
2023/04/20 07:22:59;;;;;;;21.37;16.40;;;;;;;;;;5094468;28;20857;-60
2023/04/20 07:25:30;;;;;;;21.70;16.23;;;;;;;;;;5094715;28;20457;-60
2023/04/20 07:27:57;;;;;;;22.70;16.33;;;;;;;;;;5094600;28;20444;-60
2023/04/20 07:30:24;;;;;;;22.53;15.17;;;;;;;;;;5094550;28;20479;-60
2023/04/20 07:32:51;;;;;;;19.40;15.17;;;;;;;;;;5094381;28;20533;-60
2023/04/20 07:35:18;;;;;;;16.67;13.57;;;;;;;;;;5094372;28;20471;-60
2023/04/20 07:37:45;;;;;;;18.30;14.30;;;;;;;;;;5094204;28;20494;-60
2023/04/20 07:40:12;;;;;;;21.83;15.70;;;;;;;;;;5094418;28;20447;-60
2023/04/20 07:42:40;;;;;;;17.93;13.80;;;;;;;;;;5094317;28;20535;-60
2023/04/20 07:45:08;;;;;;;20.23;13.93;;;;;;;;;;5094219;28;20443;-60
2023/04/20 07:47:35;;;;;;;17.47;13.53;;;;;;;;;;5094176;28;20447;-60
2023/04/20 07:50:02;;;;;;;20.43;14.23;;;;;;;;;;5093948;28;20449;-60
2023/04/20 07:52:29;;;;;;;18.00;14.70;;;;;;;;;;5093885;28;20447;-59
2023/04/20 07:54:57;;;;;;;17.43;14.33;;;;;;;;;;5093719;28;21005;-60
2023/04/20 07:57:24;;;;;;;18.63;14.43;;;;;;;;;;5093860;28;20591;-60
2023/04/20 07:59:53;;;;;;;18.73;15.10;;;;;;;;;;5093848;28;20568;-60
2023/04/20 08:02:20;;;;;;;19.00;15.60;;;;;;;;;;5093765;28;21072;-60
2023/04/20 08:04:47;;;;;;;22.40;15.00;;;;;;;;;;5093607;28;20451;-60
2023/04/20 08:07:14;;;;;;;17.20;13.87;;;;;;;;;;5093872;28;20503;-60
2023/04/20 08:09:41;;;;;;;21.50;16.30;;;;;;;;;;5093835;28;20451;-60
2023/04/20 08:12:08;;;;;;;17.70;13.97;;;;;;;;;;5093792;28;20542;-60
2023/04/20 08:14:36;;;;;;;16.33;14.13;;;;;;;;;;5094043;28;20537;-60
2023/04/20 08:17:05;;;;;;;22.07;14.10;;;;;;;;;;5093340;28;20489;-60
2023/04/20 08:19:32;;;;;;;17.00;14.50;;;;;;;;;;5093363;28;20458;-60
2023/04/20 08:21:59;;;;;;;17.50;13.80;;;;;;;;;;5093642;28;20458;-60
2023/04/20 08:24:26;;;;;;;27.23;16.70;;;;;;;;;;5093583;28;20447;-60
2023/04/20 08:26:53;;;;;;;19.40;14.87;;;;;;;;;;5093424;28;20447;-60
2023/04/20 08:29:20;;;;;;;17.87;15.27;;;;;;;;;;5093336;28;20449;-60
2023/04/20 08:31:47;;;;;;;19.43;14.17;;;;;;;;;;5093241;28;20537;-59
2023/04/20 08:34:15;;;;;;;19.17;15.40;;;;;;;;;;5093386;28;20464;-60
2023/04/20 08:36:42;;;;;;;20.70;15.33;;;;;;;;;;5093226;28;20842;-60
2023/04/20 08:39:10;;;;;;;21.50;17.57;;;;;;;;;;5093217;28;20516;-60
2023/04/20 08:41:38;;;;;;;22.50;15.70;;;;;;;;;;5093025;28;20451;-60
2023/04/20 08:44:05;;;;;;;21.70;15.97;;;;;;;;;;5093039;28;20534;-60
2023/04/20 08:46:33;;;;;;;23.53;16.20;;;;;;;;;;5092832;28;20455;-60
2023/04/20 08:49:01;;;;;;;17.63;15.13;;;;;;;;;;5093201;28;20534;-60
2023/04/20 08:51:29;;;;;;;15.87;14.10;;;;;;;;;;5093043;28;20447;-60
2023/04/20 08:53:57;;;;;;;19.30;15.77;;;;;;;;;;5092749;28;20474;-60
2023/04/20 08:56:33;;;;;;;18.90;16.23;;;;;;;;;;5092680;28;20991;-60
2023/04/20 08:59:04;;;;;;;19.83;16.40;;;;;;;;;;5092795;28;20435;-60
2023/04/20 09:01:31;;;;;;;22.10;16.03;;;;;;;;;;5092754;28;20447;-60
2023/04/20 09:03:58;;;;;;;17.00;15.20;;;;;;;;;;5092745;28;20489;-60
2023/04/20 09:06:25;;;;;;;20.30;15.40;;;;;;;;;;5092844;28;20443;-60
2023/04/20 09:08:53;;;;;;;20.53;16.57;;;;;;;;;;5092877;28;20451;-60
2023/04/20 09:11:24;;;;;;;20.33;16.07;;;;;;;;;;5092827;28;20447;-60
2023/04/20 09:14:01;;;;;;;19.37;16.17;;;;;;;;;;5092878;28;20442;-60
2023/04/20 09:16:28;;;;;;;21.40;16.00;;;;;;;;;;5092584;28;20482;-60
2023/04/20 09:18:56;;;;;;;20.37;17.13;;;;;;;;;;5092681;28;20446;-59
2023/04/20 09:21:23;;;;;;;20.33;16.57;;;;;;;;;;5092586;28;20482;-60
2023/04/20 09:23:58;;;;;;;18.20;15.17;;;;;;;;;;5092628;28;20554;-60
2023/04/20 09:26:25;;;;;;;21.20;15.70;;;;;;;;;;5092641;28;20599;-60
2023/04/20 09:28:52;;;;;;;20.87;17.27;;;;;;;;;;5092667;28;20447;-60
2023/04/20 09:31:20;;;;;;;23.67;18.63;;;;;;;;;;5092612;28;20447;-60
2023/04/20 09:33:56;;;;;;;20.90;16.50;;;;;;;;;;5092585;28;20458;-60
2023/04/20 09:36:23;;;;;;;20.10;15.40;;;;;;;;;;5092286;28;20508;-60
2023/04/20 09:39:02;;;;;;;17.80;15.90;;;;;;;;;;5092640;28;20451;-60
2023/04/20 09:41:30;;;;;;;17.73;15.30;;;;;;;;;;5095748;28;20446;-60
2023/04/20 09:43:57;;;;;;;26.07;17.77;;;;;;;;;;5096593;28;20447;-60
2023/04/20 09:46:24;;;;;;;16.27;14.57;;;;;;;;;;5096576;28;20542;-60
2023/04/20 09:48:52;;;;;;;17.57;14.90;;;;;;;;;;5096435;28;20526;-60
2023/04/20 09:51:19;;;;;;;13.83;12.33;;;;;;;;;;5096579;28;20952;-60
2023/04/20 09:53:46;;;;;;;20.43;13.80;;;;;;;;;;5096266;28;20470;-60
2023/04/20 09:56:16;;;;;;;16.97;13.40;;;;;;;;;;5096327;28;20650;-61
2023/04/20 09:58:43;;;;;;;21.00;17.50;;;;;;;;;;5096154;28;21037;-60
2023/04/20 10:01:10;;;;;;;15.67;13.97;;;;;;;;;;5096191;28;20454;-60
2023/04/20 10:03:37;;;;;;;14.63;13.10;;;;;;;;;;5095953;28;20956;-60
2023/04/20 10:06:05;;;;;;;16.60;14.83;;;;;;;;;;5096017;28;20458;-60
2023/04/20 10:08:41;;;;;;;13.70;12.33;;;;;;;;;;5095945;28;20496;-60
2023/04/20 10:11:08;;;;;;;18.13;14.30;;;;;;;;;;5096007;28;20451;-60
2023/04/20 10:13:38;;;;;;;15.03;13.13;;;;;;;;;;5096181;28;20486;-60
2023/04/20 10:16:05;;;;;;;20.43;12.00;;;;;;;;;;5095683;28;20562;-60
2023/04/20 10:18:32;;;;;;;14.37;12.97;;;;;;;;;;5096172;28;20453;-60
2023/04/20 10:21:05;;;;;;;17.40;13.87;;;;;;;;;;5096051;28;20447;-60
2023/04/20 10:23:32;;;;;;;16.27;12.60;;;;;;;;;;5096001;28;20447;-60
2023/04/20 10:26:01;;;;;;;14.80;13.30;;;;;;;;;;5095911;28;20534;-60
2023/04/20 10:28:39;;;;;;;14.33;12.83;;;;;;;;;;5095459;28;20451;-60
2023/04/20 10:31:06;;;;;;;15.30;13.80;;;;;;;;;;5095817;28;20451;-60
2023/04/20 10:33:33;;;;;;;14.20;12.80;;;;;;;;;;5095857;28;20462;-61
2023/04/20 10:36:00;;;;;;;17.10;13.40;;;;;;;;;;5095699;28;20934;-60
2023/04/20 10:38:31;;;;;;;15.03;11.67;;;;;;;;;;5095506;28;20926;-60
2023/04/20 10:40:58;;;;;;;13.90;12.50;;;;;;;;;;5095144;28;20534;-60
2023/04/20 10:43:25;;;;;;;14.30;12.80;;;;;;;;;;5095638;28;20451;-60
2023/04/20 10:45:53;;;;;;;13.07;11.77;;;;;;;;;;5095534;28;20447;-60
2023/04/20 10:48:20;;;;;;;12.90;11.60;;;;;;;;;;5095445;28;20886;-60
2023/04/20 10:50:47;;;;;;;13.93;12.57;;;;;;;;;;5095380;28;20455;-60
2023/04/20 10:53:19;;;;;;;15.40;13.63;;;;;;;;;;5093777;28;20477;-60
2023/04/20 10:55:46;;;;;;;15.47;13.97;;;;;;;;;;5095252;28;20451;-60
2023/04/20 10:58:21;;;;;;;15.20;13.53;;;;;;;;;;5095326;28;20531;-60
2023/04/20 11:00:58;;;;;;;15.83;14.27;;;;;;;;;;5095103;28;20446;-60
2023/04/20 11:03:25;;;;;;;14.90;12.87;;;;;;;;;;5095026;28;20446;-60
2023/04/20 11:05:52;;;;;;;14.70;13.20;;;;;;;;;;5095012;28;20500;-60
2023/04/20 11:08:19;;;;;;;15.30;13.67;;;;;;;;;;5094985;28;20451;-60
2023/04/20 11:10:47;;;;;;;15.90;14.20;;;;;;;;;;5094925;28;20443;-60
2023/04/20 11:13:21;;;;;;;15.00;13.40;;;;;;;;;;5094755;28;20439;-60
2023/04/20 11:15:48;;;;;;;14.43;12.50;;;;;;;;;;5094717;28;20458;-60
2023/04/20 11:18:17;;;;;;;16.13;14.43;;;;;;;;;;5094502;28;20567;-60
2023/04/20 11:20:51;;;;;;;16.90;14.73;;;;;;;;;;5094318;28;20500;-60
2023/04/20 11:23:19;;;;;;;14.20;12.73;;;;;;;;;;5094369;28;20919;-60
2023/04/20 11:25:50;;;;;;;16.03;13.63;;;;;;;;;;5094153;28;20993;-60
2023/04/20 11:28:17;;;;;;;16.47;13.77;;;;;;;;;;5094162;28;20542;-60
2023/04/20 11:30:44;;;;;;;17.20;14.17;;;;;;;;;;5094200;28;20541;-61
2023/04/20 11:33:12;;;;;;;16.13;14.53;;;;;;;;;;5094217;28;20447;-60
2023/04/20 11:35:41;;;;;;;16.77;15.20;;;;;;;;;;5094387;28;20439;-60
2023/04/20 11:38:08;;;;;;;20.30;14.33;;;;;;;;;;5094120;28;21008;-60
2023/04/20 11:40:36;;;;;;;15.93;14.30;;;;;;;;;;5094120;28;20534;-60
2023/04/20 11:43:04;;;;;;;17.37;14.13;;;;;;;;;;5094223;28;20474;-60
2023/04/20 11:45:33;;;;;;;17.13;14.17;;;;;;;;;;5094089;28;20470;-60
2023/04/20 11:48:00;;;;;;;17.33;15.50;;;;;;;;;;5094266;28;20524;-60
2023/04/20 11:50:27;;;;;;;16.00;14.17;;;;;;;;;;5094091;28;20447;-60
2023/04/20 11:52:55;;;;;;;18.80;16.47;;;;;;;;;;5093855;28;20455;-60
2023/04/20 11:55:22;;;;;;;16.20;14.50;;;;;;;;;;5094091;28;20446;-60
2023/04/20 11:57:50;;;;;;;17.70;15.87;;;;;;;;;;5093718;28;20485;-61
2023/04/20 12:00:18;;;;;;;16.73;15.13;;;;;;;;;;5093975;28;20542;-61
2023/04/20 12:02:45;;;;;;;17.63;15.83;;;;;;;;;;5093654;28;20485;-61
2023/04/20 12:05:12;;;;;;;18.03;15.57;;;;;;;;;;5094079;28;20451;-61
2023/04/20 12:07:39;;;;;;;17.80;15.13;;;;;;;;;;5093821;28;20966;-61
2023/04/20 12:10:09;;;;;;;16.10;14.47;;;;;;;;;;5093654;28;20531;-61
2023/04/20 12:12:37;;;;;;;17.77;14.43;;;;;;;;;;5093452;28;20914;-60
2023/04/20 12:15:04;;;;;;;19.10;15.00;;;;;;;;;;5093597;28;20452;-60
2023/04/20 12:17:31;;;;;;;18.67;14.10;;;;;;;;;;5093512;28;20576;-60
2023/04/20 12:19:58;;;;;;;17.00;14.13;;;;;;;;;;5093712;28;20483;-60
2023/04/20 12:22:25;;;;;;;15.87;14.20;;;;;;;;;;5093339;28;20443;-60
2023/04/20 12:24:52;;;;;;;18.03;14.57;;;;;;;;;;5093392;28;20449;-60
2023/04/20 12:27:20;;;;;;;18.23;14.63;;;;;;;;;;5093188;28;20447;-60
2023/04/20 12:29:47;;;;;;;15.30;13.67;;;;;;;;;;5093388;28;20472;-60
2023/04/20 12:32:14;;;;;;;17.13;13.50;;;;;;;;;;5093064;28;20945;-60
2023/04/20 12:34:41;;;;;;;14.97;13.37;;;;;;;;;;5093506;28;20461;-60
2023/04/20 12:37:08;;;;;;;15.33;13.73;;;;;;;;;;5093393;28;20474;-60
2023/04/20 12:39:35;;;;;;;13.43;12.00;;;;;;;;;;5093393;28;20772;-61
2023/04/20 12:42:02;;;;;;;14.27;12.77;;;;;;;;;;5093363;28;20866;-60
2023/04/20 12:44:31;;;;;;;14.93;13.13;;;;;;;;;;5093456;28;20451;-61
2023/04/20 12:46:57;;;;;;;16.90;13.53;;;;;;;;;;5093172;28;20929;-60
2023/04/20 12:49:24;;;;;;;17.33;12.90;;;;;;;;;;5093270;28;20453;-60
2023/04/20 12:51:51;;;;;;;15.87;14.17;;;;;;;;;;5093156;28;20889;-60
2023/04/20 12:54:18;;;;;;;13.93;12.37;;;;;;;;;;5093062;28;20471;-61
2023/04/20 12:56:45;;;;;;;14.50;12.93;;;;;;;;;;5093243;28;20453;-61
2023/04/20 12:59:13;;;;;;;16.43;11.90;;;;;;;;;;5093222;28;20487;-61
2023/04/20 13:01:41;;;;;;;13.23;12.03;;;;;;;;;;5093044;28;20451;-60
2023/04/20 13:04:08;;;;;;;15.03;12.83;;;;;;;;;;5093194;28;20439;-60
2023/04/20 13:06:35;;;;;;;13.47;11.00;;;;;;;;;;5093145;28;20941;-58
2023/04/20 13:09:02;;;;;;;12.00;10.90;;;;;;;;;;5092884;28;21109;-60
2023/04/20 13:11:30;;;;;;;13.17;11.90;;;;;;;;;;5093127;28;20504;-60
2023/04/20 13:13:57;;;;;;;19.47;15.57;;;;;;;;;;5092965;28;20446;-60
2023/04/20 13:16:24;;;;;;;13.10;11.57;;;;;;;;;;5092209;28;20784;-60
2023/04/20 13:18:52;;;;;;;12.80;11.20;;;;;;;;;;5092851;28;20876;-60
2023/04/20 13:21:19;;;;;;;12.43;10.43;;;;;;;;;;5092718;28;20442;-61
2023/04/20 13:23:46;;;;;;;12.50;11.00;;;;;;;;;;5093053;28;20530;-60
2023/04/20 13:26:13;;;;;;;13.80;11.20;;;;;;;;;;5092838;28;20807;-61
2023/04/20 13:28:40;;;;;;;12.93;11.40;;;;;;;;;;5092882;28;20446;-60
2023/04/20 13:31:07;;;;;;;12.77;10.70;;;;;;;;;;5092654;28;20942;-61
2023/04/20 13:33:34;;;;;;;11.33;10.00;;;;;;;;;;5092895;28;20448;-61
2023/04/20 13:36:03;;;;;;;11.30;10.20;;;;;;;;;;5092619;28;20865;-61
2023/04/20 13:38:30;;;;;;;13.33;10.53;;;;;;;;;;5092777;28;20851;-60
2023/04/20 13:40:57;;;;;;;11.57;10.50;;;;;;;;;;5092810;28;20860;-60
2023/04/20 13:43:24;;;;;;;11.73;10.63;;;;;;;;;;5092707;28;21038;-60
2023/04/20 13:45:50;;;;;;;13.07;10.33;;;;;;;;;;5092678;28;20539;-60
2023/04/20 13:48:17;;;;;;;9.87;8.97;;;;;;;;;;5092576;28;20538;-60
2023/04/20 13:50:46;;;;;;;12.47;10.83;;;;;;;;;;5092511;28;20485;-60
2023/04/20 13:53:14;;;;;;;10.53;9.37;;;;;;;;;;5092587;28;20467;-61
2023/04/20 13:55:41;;;;;;;11.93;10.23;;;;;;;;;;5092579;28;20458;-61
2023/04/20 13:58:08;;;;;;;11.90;10.80;;;;;;;;;;5092428;28;20562;-61
2023/04/20 14:00:35;;;;;;;12.50;10.10;;;;;;;;;;5092467;28;20482;-60
2023/04/20 14:03:04;;;;;;;11.63;9.30;;;;;;;;;;5092460;28;20458;-60
2023/04/20 14:05:31;;;;;;;13.53;9.73;;;;;;;;;;5092622;28;20824;-60
2023/04/20 14:08:00;;;;;;;12.20;10.70;;;;;;;;;;5092696;28;20811;-60
2023/04/20 14:10:28;;;;;;;10.13;9.00;;;;;;;;;;5092503;28;20452;-61
2023/04/20 14:12:56;;;;;;;10.77;8.80;;;;;;;;;;5092491;28;20448;-61
2023/04/20 14:15:23;;;;;;;9.60;8.77;;;;;;;;;;5092365;28;20940;-60
2023/04/20 14:17:50;;;;;;;10.17;9.20;;;;;;;;;;5092225;28;21036;-60
2023/04/20 14:20:16;;;;;;;9.80;8.83;;;;;;;;;;5092439;28;20541;-61